SECU/CUE METAR and TAF weather

Enter ICAO airport designator
Station Type Date Time Source
SECU METAR 2021/01/22 07:00 UTC NOAA

SECU 220700Z AUTO 00000KT ////NDV NCD 13/13 Q1023


Station Type Date Time Source
SECU Decoded METAR 2021/01/22 07:00 UTC NOAA

Cuenca / Mariscal Lamar, Ecuador (SECU) 02-53S 078-59W 2531M
Jan 22, 2021 - 02:00 AM EST / 2021.01.22 0700 UTC
Wind: Calm:0
Temperature: 55 F (13 C)
Dew Point: 55 F (13 C)
Relative Humidity: 100%
Pressure (altimeter): 30.21 in. Hg (1023 hPa)
ob: SECU 220700Z AUTO 00000KT ////NDV NCD 13/13 Q1023
cycle: 7

Station Type Date Time Source
SECU TAF 2019/10/28 06:45 UTC NOAA

TAF SECU 280435Z 2806/2906 VRB03KT 9999 FEW010 BKN033
BECMG 2814/2815 05005KT BKN040 BKN100 TX20/2819Z TN12/2811Z

Example: see airport list